^^
Saratoga-Weather Station Historical Data
Daily Summary for August 30, 2020 Units:  Both    English   Metric
Daily Weekly Monthly Yearly Custom
  High: Low: Average:
Temperature: 56.8 °F /  13.8 °C 48.7 °F /  9.3 °C 52.3 °F /  11.3 °C
Dew Point: 50.2 °F /  10.1 °C 43.9 °F /  6.6 °C 48.2 °F /  9 °C
Humidity: 92% 74% 86%
Wind Speed: 15mph /  24.1km/h - 2.6mph /  4.2km/h
Wind Gust: 16mph /  25.7km/h - -
Wind- - SSW
Pressure: 29.7 in /  1005.4 hPa 29.6 in /  1001.0 hPa -
Precipitation: 0.24 in /  6.1 mm    
Historical Graphs
 
 
Tabular Data for August 30, 2020
Time Temperature Dew Point Pressure Wind Wind Speed Wind Gust Humidity Rainfall Rate (Hourly) solar
00:01 54.1 °F /  12.3 °C 49.5 °F /  9.7 °C 29.7in /  1005.4hPa NNE 0.9mph /  1.4km/h 6mph /  9.7km/h 84% 0in /  0.0mm 0 W/m2
00:06 54.1 °F /  12.3 °C 49.5 °F /  9.7 °C 29.7in /  1005.4hPa West 2mph /  3.2km/h 4mph /  6.4km/h 84% 0in /  0.0mm 0 W/m2
00:12 54.1 °F /  12.3 °C 49.5 °F /  9.7 °C 29.7in /  1005.4hPa NE 2mph /  3.2km/h 7mph /  11.3km/h 84% 0in /  0.0mm 0 W/m2
00:17 54.1 °F /  12.3 °C 49.8 °F /  9.9 °C 29.7in /  1005.1hPa WNW 2mph /  3.2km/h 3mph /  4.8km/h 85% 0in /  0.0mm 0 W/m2
00:22 54.1 °F /  12.3 °C 49.8 °F /  9.9 °C 29.7in /  1005.1hPa SSW 0.9mph /  1.4km/h 7mph /  11.3km/h 85% 0in /  0.0mm 0 W/m2
00:27 54 °F /  12.2 °C 49.6 °F /  9.8 °C 29.7in /  1005.1hPa NW 0.9mph /  1.4km/h 3mph /  4.8km/h 85% 0in /  0.0mm 0 W/m2
00:32 54 °F /  12.2 °C 49.6 °F /  9.8 °C 29.7in /  1004.7hPa ENE 2mph /  3.2km/h 4mph /  6.4km/h 85% 0in /  0.0mm 0 W/m2
00:37 54 °F /  12.2 °C 49.6 °F /  9.8 °C 29.7in /  1005.1hPa ENE 2mph /  3.2km/h 6mph /  9.7km/h 85% 0in /  0.0mm 0 W/m2
00:42 54 °F /  12.2 °C 49.6 °F /  9.8 °C 29.7in /  1004.7hPa NNW 2mph /  3.2km/h 7mph /  11.3km/h 85% 0in /  0.0mm 0 W/m2
00:47 54.1 °F /  12.3 °C 49.5 °F /  9.7 °C 29.7in /  1005.1hPa NNE 4mph /  6.4km/h 6mph /  9.7km/h 84% 0in /  0.0mm 0 W/m2
00:52 54.1 °F /  12.3 °C 49.5 °F /  9.7 °C 29.7in /  1005.1hPa NW 2.9mph /  4.7km/h 5mph /  8km/h 84% 0in /  0.0mm 0 W/m2
00:57 54.1 °F /  12.3 °C 49.5 °F /  9.7 °C 29.7in /  1004.7hPa NW 2.9mph /  4.7km/h 4mph /  6.4km/h 84% 0in /  0.0mm 0 W/m2
01:02 54.1 °F /  12.3 °C 49.5 °F /  9.7 °C 29.7in /  1004.7hPa East 2mph /  3.2km/h 5mph /  8km/h 84% 0in /  0.0mm 0 W/m2
01:07 54.1 °F /  12.3 °C 49.5 °F /  9.7 °C 29.7in /  1004.7hPa Calm   2mph /  3.2km/h 84% 0in /  0.0mm 0 W/m2
01:12 54.1 °F /  12.3 °C 49.5 °F /  9.7 °C 29.7in /  1004.7hPa NE 2mph /  3.2km/h 5mph /  8km/h 84% 0in /  0.0mm 0 W/m2
01:17 54.1 °F /  12.3 °C 49.5 °F /  9.7 °C 29.7in /  1004.7hPa North 0.9mph /  1.4km/h 2mph /  3.2km/h 84% 0in /  0.0mm 0 W/m2
01:22 54 °F /  12.2 °C 49.3 °F /  9.6 °C 29.7in /  1004.7hPa NE 2.9mph /  4.7km/h 4mph /  6.4km/h 84% 0in /  0.0mm 0 W/m2
01:27 54 °F /  12.2 °C 49.3 °F /  9.6 °C 29.7in /  1004.7hPa North 2mph /  3.2km/h 6mph /  9.7km/h 84% 0in /  0.0mm 0 W/m2
01:32 54 °F /  12.2 °C 49.3 °F /  9.6 °C 29.7in /  1004.7hPa North 2mph /  3.2km/h 4mph /  6.4km/h 84% 0in /  0.0mm 0 W/m2
01:37 54 °F /  12.2 °C 49.6 °F /  9.8 °C 29.7in /  1004.4hPa NNE 2mph /  3.2km/h 5mph /  8km/h 85% 0in /  0.0mm 0 W/m2
01:42 54 °F /  12.2 °C 49.3 °F /  9.6 °C 29.7in /  1004.4hPa NNW 2mph /  3.2km/h 4mph /  6.4km/h 84% 0in /  0.0mm 0 W/m2
01:47 53.8 °F /  12.1 °C 49.5 °F /  9.7 °C 29.7in /  1004.4hPa NE 0.9mph /  1.4km/h 5mph /  8km/h 85% 0in /  0.0mm 0 W/m2
01:52 53.8 °F /  12.1 °C 49.5 °F /  9.7 °C 29.7in /  1004.4hPa North 2mph /  3.2km/h 4mph /  6.4km/h 85% 0in /  0.0mm 0 W/m2
01:57 53.8 °F /  12.1 °C 49.5 °F /  9.7 °C 29.7in /  1004.4hPa Calm   5mph /  8km/h 85% 0in /  0.0mm 0 W/m2
02:02 53.8 °F /  12.1 °C 49.6 °F /  9.8 °C 29.7in /  1004.4hPa NE 2.9mph /  4.7km/h 3mph /  4.8km/h 86% 0in /  0.0mm 0 W/m2
02:07 53.8 °F /  12.1 °C 49.6 °F /  9.8 °C 29.7in /  1004.1hPa NNW 2mph /  3.2km/h 3mph /  4.8km/h 86% 0in /  0.0mm 0 W/m2
02:12 53.6 °F /  12 °C 49.8 °F /  9.9 °C 29.7in /  1004.1hPa North 8.1mph /  13km/h 9mph /  14.5km/h 87% 0in /  0.0mm 0 W/m2
02:17 53.4 °F /  11.9 °C 49.6 °F /  9.8 °C 29.7in /  1004.1hPa East 2mph /  3.2km/h 6mph /  9.7km/h 87% 0in /  0.0mm 0 W/m2
02:22 53.4 °F /  11.9 °C 49.6 °F /  9.8 °C 29.7in /  1004.1hPa NNE 4mph /  6.4km/h 8mph /  12.9km/h 87% 0in /  0.0mm 0 W/m2
02:27 53.4 °F /  11.9 °C 50 °F /  10 °C 29.7in /  1004.1hPa North 2mph /  3.2km/h 4mph /  6.4km/h 88% 0.01in /  0.2mm 0 W/m2
02:32 53.2 °F /  11.8 °C 49.8 °F /  9.9 °C 29.6in /  1003.7hPa ENE 4mph /  6.4km/h 5mph /  8km/h 88% 0.01in /  0.2mm 0 W/m2
02:37 53.2 °F /  11.8 °C 50 °F /  10 °C 29.6in /  1003.7hPa Calm   3mph /  4.8km/h 89% 0.01in /  0.2mm 0 W/m2
02:42 53.2 °F /  11.8 °C 50 °F /  10 °C 29.6in /  1003.7hPa ENE 4mph /  6.4km/h 4mph /  6.4km/h 89% 0.01in /  0.2mm 0 W/m2
02:47 53.1 °F /  11.7 °C 49.8 °F /  9.9 °C 29.6in /  1003.7hPa Calm   5mph /  8km/h 89% 0.01in /  0.2mm 0 W/m2
02:52 53.1 °F /  11.7 °C 50.2 °F /  10.1 °C 29.6in /  1003.7hPa NNW 2.9mph /  4.7km/h 3mph /  4.8km/h 90% 0.02in /  0.5mm 0 W/m2
02:58 53.1 °F /  11.7 °C 50.2 °F /  10.1 °C 29.6in /  1003.7hPa ENE 2.9mph /  4.7km/h 4mph /  6.4km/h 90% 0.02in /  0.5mm 0 W/m2
03:03 52.9 °F /  11.6 °C 50 °F /  10 °C 29.6in /  1003.4hPa NNW 2mph /  3.2km/h 6mph /  9.7km/h 90% 0.02in /  0.5mm 0 W/m2
03:08 52.9 °F /  11.6 °C 50 °F /  10 °C 29.6in /  1003.4hPa NNW 2.9mph /  4.7km/h 5mph /  8km/h 90% 0.02in /  0.5mm 0 W/m2
03:13 52.9 °F /  11.6 °C 50 °F /  10 °C 29.6in /  1003.4hPa North 4mph /  6.4km/h 4mph /  6.4km/h 90% 0.02in /  0.5mm 0 W/m2
03:18 52.7 °F /  11.5 °C 49.8 °F /  9.9 °C 29.6in /  1003.4hPa East 2mph /  3.2km/h 4mph /  6.4km/h 90% 0.02in /  0.5mm 0 W/m2
03:23 52.5 °F /  11.4 °C 50 °F /  10 °C 29.6in /  1003.0hPa NNE 2mph /  3.2km/h 4mph /  6.4km/h 91% 0.02in /  0.5mm 0 W/m2
03:28 52.5 °F /  11.4 °C 50 °F /  10 °C 29.6in /  1003.0hPa West 2mph /  3.2km/h 5mph /  8km/h 91% 0.02in /  0.5mm 0 W/m2
03:33 52.5 °F /  11.4 °C 50 °F /  10 °C 29.6in /  1003.0hPa North 2mph /  3.2km/h 5mph /  8km/h 91% 0.02in /  0.5mm 0 W/m2
03:38 52.5 °F /  11.4 °C 50 °F /  10 °C 29.6in /  1003.0hPa NNW 2mph /  3.2km/h 4mph /  6.4km/h 91% 0.02in /  0.5mm 0 W/m2
03:43 52.5 °F /  11.4 °C 50 °F /  10 °C 29.6in /  1003.0hPa North 2.9mph /  4.7km/h 6mph /  9.7km/h 91% 0.02in /  0.5mm 0 W/m2
03:48 52.3 °F /  11.3 °C 49.8 °F /  9.9 °C 29.6in /  1003.0hPa East 4mph /  6.4km/h 4mph /  6.4km/h 91% 0.03in /  0.8mm 0 W/m2
03:53 52.3 °F /  11.3 °C 49.8 °F /  9.9 °C 29.6in /  1003.0hPa Calm   4mph /  6.4km/h 91% 0.02in /  0.5mm 0 W/m2
03:58 52.3 °F /  11.3 °C 49.8 °F /  9.9 °C 29.6in /  1003.0hPa East 2.9mph /  4.7km/h 6mph /  9.7km/h 91% 0.03in /  0.8mm 0 W/m2
04:03 52.3 °F /  11.3 °C 49.8 °F /  9.9 °C 29.6in /  1003.0hPa NW 2.9mph /  4.7km/h 4mph /  6.4km/h 91% 0.03in /  0.8mm 0 W/m2
04:08 52.2 °F /  11.2 °C 49.6 °F /  9.8 °C 29.6in /  1003.0hPa NNW 2mph /  3.2km/h 4mph /  6.4km/h 91% 0.03in /  0.8mm 0 W/m2
04:13 52.2 °F /  11.2 °C 49.6 °F /  9.8 °C 29.6in /  1002.7hPa NNW 0.9mph /  1.4km/h 4mph /  6.4km/h 91% 0.04in /  1.0mm 0 W/m2
04:18 52.2 °F /  11.2 °C 49.8 °F /  9.9 °C 29.6in /  1002.7hPa NNW 2mph /  3.2km/h 4mph /  6.4km/h 92% 0.04in /  1.0mm 0 W/m2
04:23 52.2 °F /  11.2 °C 49.8 °F /  9.9 °C 29.6in /  1002.7hPa ENE 2mph /  3.2km/h 3mph /  4.8km/h 92% 0.05in /  1.3mm 0 W/m2
04:28 52.2 °F /  11.2 °C 49.8 °F /  9.9 °C 29.6in /  1002.7hPa NE 2.9mph /  4.7km/h 4mph /  6.4km/h 92% 0.04in /  1.0mm 0 W/m2
04:33 52 °F /  11.1 °C 49.6 °F /  9.8 °C 29.6in /  1002.7hPa East 0.9mph /  1.4km/h 6mph /  9.7km/h 92% 0.04in /  1.0mm 0 W/m2
04:38 52 °F /  11.1 °C 49.6 °F /  9.8 °C 29.6in /  1002.7hPa North 2mph /  3.2km/h 2mph /  3.2km/h 92% 0.05in /  1.3mm 0 W/m2
04:43 52 °F /  11.1 °C 49.6 °F /  9.8 °C 29.6in /  1002.4hPa North 2.9mph /  4.7km/h 7mph /  11.3km/h 92% 0.04in /  1.0mm 0 W/m2
04:48 52 °F /  11.1 °C 49.6 °F /  9.8 °C 29.6in /  1002.4hPa Calm   4mph /  6.4km/h 92% 0.03in /  0.8mm 0 W/m2
04:53 52 °F /  11.1 °C 49.6 °F /  9.8 °C 29.6in /  1002.4hPa NE 0.9mph /  1.4km/h 5mph /  8km/h 92% 0.04in /  1.0mm 0 W/m2
04:58 52 °F /  11.1 °C 49.6 °F /  9.8 °C 29.6in /  1002.4hPa ENE 0.9mph /  1.4km/h 3mph /  4.8km/h 92% 0.03in /  0.8mm 0 W/m2
05:03 52 °F /  11.1 °C 49.6 °F /  9.8 °C 29.6in /  1002.4hPa North 2.9mph /  4.7km/h 7mph /  11.3km/h 92% 0.04in /  1.0mm 0 W/m2
05:08 52 °F /  11.1 °C 49.6 °F /  9.8 °C 29.6in /  1002.4hPa West 4mph /  6.4km/h 8mph /  12.9km/h 92% 0.03in /  0.8mm 0 W/m2
05:13 52 °F /  11.1 °C 49.6 °F /  9.8 °C 29.6in /  1002.4hPa SE 0.9mph /  1.4km/h 4mph /  6.4km/h 92% 0.03in /  0.8mm 0 W/m2
05:19 52 °F /  11.1 °C 49.6 °F /  9.8 °C 29.6in /  1002.4hPa North 2.9mph /  4.7km/h 8mph /  12.9km/h 92% 0.03in /  0.8mm 0 W/m2
05:24 52 °F /  11.1 °C 49.6 °F /  9.8 °C 29.6in /  1002.4hPa South 2mph /  3.2km/h 6mph /  9.7km/h 92% 0.02in /  0.5mm 0 W/m2
05:29 52 °F /  11.1 °C 49.6 °F /  9.8 °C 29.6in /  1002.4hPa North 4.9mph /  7.9km/h 5mph /  8km/h 92% 0.02in /  0.5mm 0 W/m2
05:34 52 °F /  11.1 °C 49.6 °F /  9.8 °C 29.6in /  1002.0hPa NNE 2.9mph /  4.7km/h 6mph /  9.7km/h 92% 0.02in /  0.5mm 0 W/m2
05:39 51.8 °F /  11 °C 49.6 °F /  9.8 °C 29.6in /  1002.0hPa NW 2mph /  3.2km/h 3mph /  4.8km/h 92% 0.02in /  0.5mm 0 W/m2
05:44 51.8 °F /  11 °C 49.3 °F /  9.6 °C 29.6in /  1002.0hPa SSW 2mph /  3.2km/h 3mph /  4.8km/h 91% 0.02in /  0.5mm 0 W/m2
05:49 51.8 °F /  11 °C 49.3 °F /  9.6 °C 29.6in /  1002.0hPa North 0.9mph /  1.4km/h 2mph /  3.2km/h 91% 0.02in /  0.5mm 0 W/m2
05:54 51.8 °F /  11 °C 49.3 °F /  9.6 °C 29.6in /  1002.4hPa North 2mph /  3.2km/h 3mph /  4.8km/h 91% 0.01in /  0.2mm 0 W/m2
05:59 51.6 °F /  10.9 °C 49.1 °F /  9.5 °C 29.6in /  1002.4hPa SSW 0.9mph /  1.4km/h 5mph /  8km/h 91% 0.01in /  0.2mm 0 W/m2
06:04 51.6 °F /  10.9 °C 49.1 °F /  9.5 °C 29.6in /  1002.4hPa NW 0.9mph /  1.4km/h 3mph /  4.8km/h 91% 0in /  0.0mm 0 W/m2
06:09 51.6 °F /  10.9 °C 48.7 °F /  9.3 °C 29.6in /  1002.4hPa WNW 0.9mph /  1.4km/h 4mph /  6.4km/h 90% 0in /  0.0mm 0 W/m2
06:14 51.4 °F /  10.8 °C 48.6 °F /  9.2 °C 29.6in /  1002.4hPa Calm   3mph /  4.8km/h 90% 0in /  0.0mm 0 W/m2
06:19 51.4 °F /  10.8 °C 48.6 °F /  9.2 °C 29.6in /  1002.4hPa NW 2mph /  3.2km/h 3mph /  4.8km/h 90% 0in /  0.0mm 0 W/m2
06:24 51.3 °F /  10.7 °C 48.4 °F /  9.1 °C 29.6in /  1002.7hPa East 0.9mph /  1.4km/h 4mph /  6.4km/h 90% 0in /  0.0mm 0 W/m2
06:29 51.3 °F /  10.7 °C 48.4 °F /  9.1 °C 29.6in /  1002.7hPa NE 2mph /  3.2km/h 3mph /  4.8km/h 90% 0in /  0.0mm 0 W/m2
06:34 51.3 °F /  10.7 °C 48.4 °F /  9.1 °C 29.6in /  1002.7hPa East 0.9mph /  1.4km/h 3mph /  4.8km/h 90% 0in /  0.0mm 5 W/m2
06:39 51.3 °F /  10.7 °C 48.7 °F /  9.3 °C 29.6in /  1002.7hPa NNE 2mph /  3.2km/h 3mph /  4.8km/h 91% 0in /  0.0mm 9 W/m2
06:44 51.3 °F /  10.7 °C 48.4 °F /  9.1 °C 29.6in /  1002.7hPa East 2mph /  3.2km/h 4mph /  6.4km/h 90% 0in /  0.0mm 7 W/m2
06:49 51.3 °F /  10.7 °C 48.7 °F /  9.3 °C 29.6in /  1002.7hPa Calm   1mph /  1.6km/h 91% 0in /  0.0mm 9 W/m2
06:55 51.3 °F /  10.7 °C 48.7 °F /  9.3 °C 29.6in /  1002.7hPa Calm   2mph /  3.2km/h 91% 0in /  0.0mm 18 W/m2
07:00 51.1 °F /  10.6 °C 48.6 °F /  9.2 °C 29.6in /  1002.7hPa Calm   2mph /  3.2km/h 91% 0in /  0.0mm 19 W/m2
07:05 51.1 °F /  10.6 °C 48.6 °F /  9.2 °C 29.6in /  1002.7hPa ESE 2mph /  3.2km/h 2mph /  3.2km/h 91% 0in /  0.0mm 28 W/m2
07:10 51.1 °F /  10.6 °C 48.6 °F /  9.2 °C 29.6in /  1002.7hPa NNE 0.9mph /  1.4km/h 1mph /  1.6km/h 91% 0in /  0.0mm 30 W/m2
07:15 51.1 °F /  10.6 °C 48.6 °F /  9.2 °C 29.6in /  1002.7hPa North 0.9mph /  1.4km/h 6mph /  9.7km/h 91% 0in /  0.0mm 33 W/m2
07:20 51.3 °F /  10.7 °C 48.7 °F /  9.3 °C 29.6in /  1002.7hPa SE 2mph /  3.2km/h 7mph /  11.3km/h 91% 0in /  0.0mm 46 W/m2
07:25 51.3 °F /  10.7 °C 48.7 °F /  9.3 °C 29.6in /  1003.0hPa NNW 0.9mph /  1.4km/h 4mph /  6.4km/h 91% 0in /  0.0mm 56 W/m2
07:30 51.4 °F /  10.8 °C 48.9 °F /  9.4 °C 29.6in /  1003.0hPa NW 2.9mph /  4.7km/h 6mph /  9.7km/h 91% 0in /  0.0mm 28 W/m2
07:35 51.4 °F /  10.8 °C 48.9 °F /  9.4 °C 29.6in /  1003.0hPa Calm   4mph /  6.4km/h 91% 0in /  0.0mm 37 W/m2
07:40 51.4 °F /  10.8 °C 48.9 °F /  9.4 °C 29.6in /  1002.7hPa NE 2.9mph /  4.7km/h 3mph /  4.8km/h 91% 0in /  0.0mm 65 W/m2
07:45 51.6 °F /  10.9 °C 49.1 °F /  9.5 °C 29.6in /  1003.0hPa Calm   4mph /  6.4km/h 91% 0in /  0.0mm 76 W/m2
07:50 51.6 °F /  10.9 °C 48.7 °F /  9.3 °C 29.6in /  1003.0hPa WNW 4mph /  6.4km/h 7mph /  11.3km/h 90% 0in /  0.0mm 97 W/m2
07:55 51.8 °F /  11 °C 48.9 °F /  9.4 °C 29.6in /  1003.0hPa North 0.9mph /  1.4km/h 4mph /  6.4km/h 90% 0in /  0.0mm 100 W/m2
08:00 52 °F /  11.1 °C 48.9 °F /  9.4 °C 29.6in /  1003.0hPa NW 2.9mph /  4.7km/h 3mph /  4.8km/h 89% 0in /  0.0mm 100 W/m2
08:05 52.2 °F /  11.2 °C 49.1 °F /  9.5 °C 29.6in /  1003.0hPa WSW 0.9mph /  1.4km/h 9mph /  14.5km/h 89% 0in /  0.0mm 47 W/m2
08:10 52.2 °F /  11.2 °C 49.1 °F /  9.5 °C 29.6in /  1003.4hPa NW 0.9mph /  1.4km/h 4mph /  6.4km/h 89% 0.01in /  0.2mm 30 W/m2
08:15 51.4 °F /  10.8 °C 48 °F /  8.9 °C 29.6in /  1003.7hPa West 6mph /  9.7km/h 16mph /  25.7km/h 88% 0.02in /  0.5mm 25 W/m2
08:20 50.5 °F /  10.3 °C 47.1 °F /  8.4 °C 29.6in /  1003.4hPa WNW 11mph /  17.7km/h 11mph /  17.7km/h 88% 0.03in /  0.8mm 33 W/m2
08:25 50.2 °F /  10.1 °C 46.8 °F /  8.2 °C 29.6in /  1003.4hPa NW 6mph /  9.7km/h 16mph /  25.7km/h 88% 0.04in /  1.0mm 30 W/m2
08:30 49.6 °F /  9.8 °C 46.6 °F /  8.1 °C 29.6in /  1003.4hPa NW 2mph /  3.2km/h 6mph /  9.7km/h 89% 0.04in /  1.0mm 53 W/m2
08:35 49.5 °F /  9.7 °C 46.6 °F /  8.1 °C 29.6in /  1003.7hPa West 2.9mph /  4.7km/h 11mph /  17.7km/h 90% 0.05in /  1.3mm 107 W/m2
08:40 49.5 °F /  9.7 °C 46.6 °F /  8.1 °C 29.6in /  1003.7hPa West 2mph /  3.2km/h 9mph /  14.5km/h 90% 0.05in /  1.3mm 139 W/m2
08:45 49.5 °F /  9.7 °C 46.6 °F /  8.1 °C 29.6in /  1003.7hPa WSW 15mph /  24.1km/h 15mph /  24.1km/h 90% 0.05in /  1.3mm 169 W/m2
08:50 49.6 °F /  9.8 °C 46.8 °F /  8.2 °C 29.6in /  1003.7hPa North 2.9mph /  4.7km/h 7mph /  11.3km/h 90% 0.05in /  1.3mm 260 W/m2
08:55 49.8 °F /  9.9 °C 46.8 °F /  8.2 °C 29.6in /  1003.7hPa NW 6mph /  9.7km/h 9mph /  14.5km/h 89% 0.05in /  1.3mm 218 W/m2
09:00 50 °F /  10 °C 46.9 °F /  8.3 °C 29.7in /  1004.1hPa West 2mph /  3.2km/h 8mph /  12.9km/h 89% 0.05in /  1.3mm 200 W/m2
09:05 50.2 °F /  10.1 °C 47.1 °F /  8.4 °C 29.7in /  1004.1hPa WSW 2.9mph /  4.7km/h 9mph /  14.5km/h 89% 0.05in /  1.3mm 251 W/m2
09:10 50.5 °F /  10.3 °C 47.5 °F /  8.6 °C 29.7in /  1004.1hPa SW 6.9mph /  11.1km/h 10mph /  16.1km/h 89% 0.04in /  1.0mm 220 W/m2
09:15 50.5 °F /  10.3 °C 47.5 °F /  8.6 °C 29.7in /  1004.1hPa WSW 8.9mph /  14.3km/h 9mph /  14.5km/h 89% 0.03in /  0.8mm 134 W/m2
09:20 50.5 °F /  10.3 °C 47.1 °F /  8.4 °C 29.7in /  1004.1hPa West 2.9mph /  4.7km/h 10mph /  16.1km/h 88% 0.02in /  0.5mm 144 W/m2
09:25 50.5 °F /  10.3 °C 47.1 °F /  8.4 °C 29.7in /  1004.1hPa North 2.9mph /  4.7km/h 6mph /  9.7km/h 88% 0.01in /  0.2mm 120 W/m2
09:30 50.5 °F /  10.3 °C 47.5 °F /  8.6 °C 29.7in /  1004.1hPa WNW 2.9mph /  4.7km/h 3mph /  4.8km/h 89% 0.01in /  0.2mm 176 W/m2
09:35 50.5 °F /  10.3 °C 47.1 °F /  8.4 °C 29.7in /  1004.1hPa WSW 6.9mph /  11.1km/h 10mph /  16.1km/h 88% 0in /  0.0mm 269 W/m2
09:40 50.5 °F /  10.3 °C 47.1 °F /  8.4 °C 29.7in /  1004.1hPa WSW 10.1mph /  16.3km/h 10mph /  16.1km/h 88% 0in /  0.0mm 230 W/m2
09:45 50.7 °F /  10.4 °C 47.3 °F /  8.5 °C 29.7in /  1004.1hPa WNW 4.9mph /  7.9km/h 7mph /  11.3km/h 88% 0in /  0.0mm 188 W/m2
09:50 50.9 °F /  10.5 °C 47.1 °F /  8.4 °C 29.7in /  1004.1hPa WNW 2mph /  3.2km/h 6mph /  9.7km/h 87% 0in /  0.0mm 178 W/m2
09:55 51.1 °F /  10.6 °C 47.3 °F /  8.5 °C 29.7in /  1004.1hPa NNW 4.9mph /  7.9km/h 8mph /  12.9km/h 87% 0in /  0.0mm 178 W/m2
10:00 50.9 °F /  10.5 °C 46.9 °F /  8.3 °C 29.7in /  1004.4hPa WSW 2mph /  3.2km/h 6mph /  9.7km/h 86% 0in /  0.0mm 125 W/m2
10:05 50.9 °F /  10.5 °C 47.1 °F /  8.4 °C 29.7in /  1004.4hPa WNW 4mph /  6.4km/h 4mph /  6.4km/h 87% 0in /  0.0mm 109 W/m2
10:10 50.9 °F /  10.5 °C 47.1 °F /  8.4 °C 29.7in /  1004.4hPa WSW 2mph /  3.2km/h 3mph /  4.8km/h 87% 0in /  0.0mm 130 W/m2
10:15 50.7 °F /  10.4 °C 46.8 °F /  8.2 °C 29.7in /  1004.4hPa West 2mph /  3.2km/h 5mph /  8km/h 86% 0in /  0.0mm 179 W/m2
10:20 50.7 °F /  10.4 °C 46.8 °F /  8.2 °C 29.7in /  1004.7hPa NNW 2mph /  3.2km/h 4mph /  6.4km/h 86% 0in /  0.0mm 172 W/m2
10:25 50.9 °F /  10.5 °C 46.6 °F /  8.1 °C 29.7in /  1004.7hPa WNW 4.9mph /  7.9km/h 5mph /  8km/h 85% 0in /  0.0mm 139 W/m2
10:30 50.9 °F /  10.5 °C 46.2 °F /  7.9 °C 29.7in /  1004.7hPa WNW 2mph /  3.2km/h 6mph /  9.7km/h 84% 0in /  0.0mm 104 W/m2
10:35 50.7 °F /  10.4 °C 46 °F /  7.8 °C 29.7in /  1004.7hPa NE 2.9mph /  4.7km/h 5mph /  8km/h 84% 0in /  0.0mm 165 W/m2
10:40 50.5 °F /  10.3 °C 45.9 °F /  7.7 °C 29.7in /  1004.7hPa WNW 2.9mph /  4.7km/h 10mph /  16.1km/h 84% 0in /  0.0mm 183 W/m2
10:45 50 °F /  10 °C 44.4 °F /  6.9 °C 29.7in /  1004.7hPa NNW 2mph /  3.2km/h 11mph /  17.7km/h 81% 0in /  0.0mm 160 W/m2
10:50 49.6 °F /  9.8 °C 44.4 °F /  6.9 °C 29.7in /  1004.7hPa West 2.9mph /  4.7km/h 7mph /  11.3km/h 82% 0.01in /  0.2mm 120 W/m2
10:55 49.1 °F /  9.5 °C 43.9 °F /  6.6 °C 29.7in /  1004.7hPa West 4mph /  6.4km/h 10mph /  16.1km/h 82% 0.01in /  0.2mm 100 W/m2
11:00 48.7 °F /  9.3 °C 43.9 °F /  6.6 °C 29.7in /  1004.7hPa NW 0.9mph /  1.4km/h 6mph /  9.7km/h 83% 0.02in /  0.5mm 144 W/m2
11:05 48.7 °F /  9.3 °C 44.4 °F /  6.9 °C 29.7in /  1004.4hPa NW 2mph /  3.2km/h 4mph /  6.4km/h 85% 0.02in /  0.5mm 257 W/m2
11:10 48.7 °F /  9.3 °C 44.8 °F /  7.1 °C 29.7in /  1004.4hPa West 2mph /  3.2km/h 3mph /  4.8km/h 86% 0.02in /  0.5mm 575 W/m2
11:16 49.3 °F /  9.6 °C 45.5 °F /  7.5 °C 29.7in /  1004.4hPa Calm   1mph /  1.6km/h 87% 0.02in /  0.5mm 380 W/m2
11:21 49.6 °F /  9.8 °C 46.2 °F /  7.9 °C 29.7in /  1004.4hPa West 0.9mph /  1.4km/h 2mph /  3.2km/h 88% 0.02in /  0.5mm 431 W/m2
11:26 50.5 °F /  10.3 °C 47.5 °F /  8.6 °C 29.7in /  1004.4hPa WSW 2.9mph /  4.7km/h 4mph /  6.4km/h 89% 0.02in /  0.5mm 332 W/m2
11:31 50.5 °F /  10.3 °C 46.8 °F /  8.2 °C 29.7in /  1004.4hPa NNE 2mph /  3.2km/h 4mph /  6.4km/h 87% 0.02in /  0.5mm 441 W/m2
11:36 50.9 °F /  10.5 °C 47.1 °F /  8.4 °C 29.7in /  1004.4hPa WNW 2mph /  3.2km/h 4mph /  6.4km/h 87% 0.02in /  0.5mm 675 W/m2
11:41 51.6 °F /  10.9 °C 48.2 °F /  9 °C 29.7in /  1004.1hPa WNW 0.9mph /  1.4km/h 5mph /  8km/h 88% 0.02in /  0.5mm 568 W/m2
11:46 51.6 °F /  10.9 °C 47.3 °F /  8.5 °C 29.7in /  1004.1hPa WNW 0.9mph /  1.4km/h 3mph /  4.8km/h 85% 0.02in /  0.5mm 522 W/m2
11:51 51.4 °F /  10.8 °C 46.4 °F /  8 °C 29.7in /  1004.1hPa NNW 4mph /  6.4km/h 9mph /  14.5km/h 83% 0.02in /  0.5mm 406 W/m2
11:56 51.6 °F /  10.9 °C 46.9 °F /  8.3 °C 29.7in /  1004.1hPa West 2mph /  3.2km/h 4mph /  6.4km/h 84% 0.02in /  0.5mm 408 W/m2
12:01 51.6 °F /  10.9 °C 46.6 °F /  8.1 °C 29.7in /  1004.1hPa NW 0.9mph /  1.4km/h 5mph /  8km/h 83% 0.01in /  0.2mm 462 W/m2
12:06 52.2 °F /  11.2 °C 47.1 °F /  8.4 °C 29.7in /  1004.1hPa SSW 0.9mph /  1.4km/h 2mph /  3.2km/h 83% 0in /  0.0mm 631 W/m2
12:11 52.3 °F /  11.3 °C 47.3 °F /  8.5 °C 29.7in /  1004.1hPa WNW 2mph /  3.2km/h 3mph /  4.8km/h 83% 0in /  0.0mm 770 W/m2
12:16 52.5 °F /  11.4 °C 47.5 °F /  8.6 °C 29.7in /  1004.1hPa North 2.9mph /  4.7km/h 6mph /  9.7km/h 83% 0in /  0.0mm 831 W/m2
12:21 53.1 °F /  11.7 °C 47.3 °F /  8.5 °C 29.7in /  1004.1hPa South 0.9mph /  1.4km/h 8mph /  12.9km/h 81% 0in /  0.0mm 837 W/m2
12:26 53.1 °F /  11.7 °C 47.3 °F /  8.5 °C 29.7in /  1004.1hPa NE 2mph /  3.2km/h 3mph /  4.8km/h 81% 0in /  0.0mm 448 W/m2
12:31 53.4 °F /  11.9 °C 47.7 °F /  8.7 °C 29.7in /  1004.1hPa East 4mph /  6.4km/h 6mph /  9.7km/h 81% 0in /  0.0mm 352 W/m2
12:36 53.2 °F /  11.8 °C 47.3 °F /  8.5 °C 29.6in /  1003.7hPa West 2mph /  3.2km/h 3mph /  4.8km/h 80% 0in /  0.0mm 446 W/m2
12:41 53.4 °F /  11.9 °C 47.7 °F /  8.7 °C 29.6in /  1003.7hPa SW 2mph /  3.2km/h 4mph /  6.4km/h 81% 0in /  0.0mm 399 W/m2
12:46 53.6 °F /  12 °C 47.3 °F /  8.5 °C 29.6in /  1003.7hPa NNW 2mph /  3.2km/h 3mph /  4.8km/h 79% 0in /  0.0mm 343 W/m2
12:51 53.8 °F /  12.1 °C 47.8 °F /  8.8 °C 29.6in /  1003.7hPa WNW 2.9mph /  4.7km/h 4mph /  6.4km/h 80% 0in /  0.0mm 327 W/m2
12:56 53.8 °F /  12.1 °C 47.5 °F /  8.6 °C 29.6in /  1003.7hPa NE 2mph /  3.2km/h 7mph /  11.3km/h 79% 0in /  0.0mm 327 W/m2
13:01 53.8 °F /  12.1 °C 47.5 °F /  8.6 °C 29.6in /  1003.4hPa ESE 0.9mph /  1.4km/h 2mph /  3.2km/h 79% 0in /  0.0mm 452 W/m2
13:06 54 °F /  12.2 °C 47.7 °F /  8.7 °C 29.6in /  1003.4hPa NW 2mph /  3.2km/h 7mph /  11.3km/h 79% 0in /  0.0mm 445 W/m2
13:11 54 °F /  12.2 °C 47.3 °F /  8.5 °C 29.6in /  1003.4hPa NE 4mph /  6.4km/h 4mph /  6.4km/h 78% 0in /  0.0mm 443 W/m2
13:16 54 °F /  12.2 °C 47.3 °F /  8.5 °C 29.6in /  1003.4hPa North 2mph /  3.2km/h 6mph /  9.7km/h 78% 0.01in /  0.2mm 193 W/m2
13:21 54 °F /  12.2 °C 47.7 °F /  8.7 °C 29.6in /  1003.0hPa ENE 0.9mph /  1.4km/h 5mph /  8km/h 79% 0.01in /  0.2mm 385 W/m2
13:26 54.1 °F /  12.3 °C 47.5 °F /  8.6 °C 29.6in /  1003.0hPa NW 2mph /  3.2km/h 8mph /  12.9km/h 78% 0.01in /  0.2mm 334 W/m2
13:31 54.1 °F /  12.3 °C 47.5 °F /  8.6 °C 29.6in /  1003.0hPa West 6mph /  9.7km/h 7mph /  11.3km/h 78% 0.01in /  0.2mm 336 W/m2
13:36 54.3 °F /  12.4 °C 48 °F /  8.9 °C 29.6in /  1003.0hPa ENE 4mph /  6.4km/h 10mph /  16.1km/h 79% 0.01in /  0.2mm 292 W/m2
13:41 54.7 °F /  12.6 °C 48.4 °F /  9.1 °C 29.6in /  1002.7hPa WNW 0.9mph /  1.4km/h 4mph /  6.4km/h 79% 0.01in /  0.2mm 701 W/m2
13:46 55.2 °F /  12.9 °C 48.7 °F /  9.3 °C 29.6in /  1002.7hPa ENE 2.9mph /  4.7km/h 10mph /  16.1km/h 79% 0.01in /  0.2mm 434 W/m2
13:51 55.6 °F /  13.1 °C 48.9 °F /  9.4 °C 29.6in /  1002.7hPa NE 2mph /  3.2km/h 3mph /  4.8km/h 78% 0.01in /  0.2mm 244 W/m2
13:56 55.8 °F /  13.2 °C 48.7 °F /  9.3 °C 29.6in /  1002.4hPa NE 2.9mph /  4.7km/h 6mph /  9.7km/h 77% 0.01in /  0.2mm 438 W/m2
14:01 55.9 °F /  13.3 °C 49.1 °F /  9.5 °C 29.6in /  1002.4hPa NE 2mph /  3.2km/h 4mph /  6.4km/h 78% 0.01in /  0.2mm 455 W/m2
14:06 56.5 °F /  13.6 °C 49.3 °F /  9.6 °C 29.6in /  1002.4hPa West 4mph /  6.4km/h 4mph /  6.4km/h 77% 0.01in /  0.2mm 357 W/m2
14:11 56.8 °F /  13.8 °C 49.3 °F /  9.6 °C 29.6in /  1002.0hPa East 0.9mph /  1.4km/h 3mph /  4.8km/h 76% 0.01in /  0.2mm 362 W/m2
14:16 56.7 °F /  13.7 °C 48.4 °F /  9.1 °C 29.6in /  1002.0hPa NNW 2.9mph /  4.7km/h 3mph /  4.8km/h 74% 0in /  0.0mm 207 W/m2
14:21 56.3 °F /  13.5 °C 48.2 °F /  9 °C 29.6in /  1002.0hPa West 6.9mph /  11.1km/h 10mph /  16.1km/h 74% 0in /  0.0mm 211 W/m2
14:26 55.9 °F /  13.3 °C 48.6 °F /  9.2 °C 29.6in /  1002.0hPa SW 2mph /  3.2km/h 5mph /  8km/h 76% 0in /  0.0mm 241 W/m2
14:32 55.8 °F /  13.2 °C 48.7 °F /  9.3 °C 29.6in /  1001.7hPa ESE 4mph /  6.4km/h 4mph /  6.4km/h 77% 0in /  0.0mm 113 W/m2
14:37 55.4 °F /  13 °C 48 °F /  8.9 °C 29.6in /  1001.7hPa NNW 4.9mph /  7.9km/h 5mph /  8km/h 76% 0in /  0.0mm 146 W/m2
14:42 55 °F /  12.8 °C 48.6 °F /  9.2 °C 29.6in /  1002.0hPa NE 2.9mph /  4.7km/h 5mph /  8km/h 79% 0in /  0.0mm 163 W/m2
14:47 54.7 °F /  12.6 °C 48.6 °F /  9.2 °C 29.6in /  1002.4hPa West 12.1mph /  19.5km/h 12mph /  19.3km/h 80% 0.02in /  0.5mm 142 W/m2
14:52 53.2 °F /  11.8 °C 47.8 °F /  8.8 °C 29.6in /  1002.0hPa WSW 2mph /  3.2km/h 11mph /  17.7km/h 82% 0.02in /  0.5mm 301 W/m2
14:57 52.5 °F /  11.4 °C 48.2 °F /  9 °C 29.6in /  1002.0hPa WNW 2.9mph /  4.7km/h 9mph /  14.5km/h 85% 0.02in /  0.5mm 348 W/m2
15:02 52.3 °F /  11.3 °C 48 °F /  8.9 °C 29.6in /  1002.0hPa SW 0.9mph /  1.4km/h 4mph /  6.4km/h 85% 0.02in /  0.5mm 227 W/m2
15:07 52.2 °F /  11.2 °C 48 °F /  8.9 °C 29.6in /  1002.0hPa SW 4.9mph /  7.9km/h 5mph /  8km/h 86% 0.02in /  0.5mm 271 W/m2
15:12 52.2 °F /  11.2 °C 48 °F /  8.9 °C 29.6in /  1001.7hPa NW 2mph /  3.2km/h 4mph /  6.4km/h 86% 0.02in /  0.5mm 274 W/m2
15:17 52.2 °F /  11.2 °C 48 °F /  8.9 °C 29.6in /  1001.7hPa NNE 0.9mph /  1.4km/h 9mph /  14.5km/h 86% 0.02in /  0.5mm 181 W/m2
15:22 52.3 °F /  11.3 °C 48.6 °F /  9.2 °C 29.6in /  1001.7hPa NW 4mph /  6.4km/h 4mph /  6.4km/h 87% 0.02in /  0.5mm 186 W/m2
15:27 52.3 °F /  11.3 °C 48.2 °F /  9 °C 29.6in /  1001.7hPa North 2.9mph /  4.7km/h 4mph /  6.4km/h 86% 0.02in /  0.5mm 120 W/m2
15:32 52.3 °F /  11.3 °C 48.2 °F /  9 °C 29.6in /  1001.7hPa West 0.9mph /  1.4km/h 2mph /  3.2km/h 86% 0.02in /  0.5mm 88 W/m2
15:37 52.2 °F /  11.2 °C 48.4 °F /  9.1 °C 29.6in /  1001.7hPa ENE 2mph /  3.2km/h 4mph /  6.4km/h 87% 0.04in /  1.0mm 121 W/m2
15:42 52.2 °F /  11.2 °C 48.7 °F /  9.3 °C 29.6in /  1001.4hPa NNE 2mph /  3.2km/h 4mph /  6.4km/h 88% 0.04in /  1.0mm 162 W/m2
15:47 52 °F /  11.1 °C 48.9 °F /  9.4 °C 29.6in /  1001.4hPa NE 2mph /  3.2km/h 2mph /  3.2km/h 89% 0.03in /  0.8mm 190 W/m2
15:52 52.2 °F /  11.2 °C 49.1 °F /  9.5 °C 29.6in /  1001.4hPa East 2mph /  3.2km/h 2mph /  3.2km/h 89% 0.03in /  0.8mm 237 W/m2
15:57 52.3 °F /  11.3 °C 49.5 °F /  9.7 °C 29.6in /  1001.4hPa NNW 6mph /  9.7km/h 8mph /  12.9km/h 90% 0.03in /  0.8mm 229 W/m2
16:02 52.3 °F /  11.3 °C 49.5 °F /  9.7 °C 29.6in /  1001.4hPa NNE 0.9mph /  1.4km/h 1mph /  1.6km/h 90% 0.03in /  0.8mm 176 W/m2
16:07 52.5 °F /  11.4 °C 49.6 °F /  9.8 °C 29.6in /  1001.4hPa West 4mph /  6.4km/h 4mph /  6.4km/h 90% 0.04in /  1.0mm 165 W/m2
16:12 52.5 °F /  11.4 °C 49.6 °F /  9.8 °C 29.6in /  1001.4hPa NE 2mph /  3.2km/h 4mph /  6.4km/h 90% 0.04in /  1.0mm 135 W/m2
16:17 52.5 °F /  11.4 °C 49.6 °F /  9.8 °C 29.6in /  1001.4hPa WNW 0.9mph /  1.4km/h 7mph /  11.3km/h 90% 0.04in /  1.0mm 116 W/m2
16:22 52.5 °F /  11.4 °C 49.6 °F /  9.8 °C 29.6in /  1001.4hPa NNW 0.9mph /  1.4km/h 3mph /  4.8km/h 90% 0.04in /  1.0mm 139 W/m2
16:27 52.5 °F /  11.4 °C 49.6 °F /  9.8 °C 29.6in /  1001.4hPa WNW 2.9mph /  4.7km/h 8mph /  12.9km/h 90% 0.04in /  1.0mm 98 W/m2
16:32 52.3 °F /  11.3 °C 48.9 °F /  9.4 °C 29.6in /  1001.4hPa NW 2mph /  3.2km/h 12mph /  19.3km/h 88% 0.03in /  0.8mm 91 W/m2
16:37 52.2 °F /  11.2 °C 48.4 °F /  9.1 °C 29.6in /  1001.4hPa WNW 4.9mph /  7.9km/h 10mph /  16.1km/h 87% 0.02in /  0.5mm 83 W/m2
16:42 52 °F /  11.1 °C 48.6 °F /  9.2 °C 29.6in /  1001.7hPa WNW 8.1mph /  13km/h 12mph /  19.3km/h 88% 0.02in /  0.5mm 76 W/m2
16:47 51.4 °F /  10.8 °C 47.7 °F /  8.7 °C 29.6in /  1001.4hPa NW 2mph /  3.2km/h 6mph /  9.7km/h 87% 0.01in /  0.2mm 72 W/m2
16:52 51.3 °F /  10.7 °C 47.5 °F /  8.6 °C 29.6in /  1001.4hPa WSW 2.9mph /  4.7km/h 12mph /  19.3km/h 87% 0.02in /  0.5mm 86 W/m2
16:57 51.1 °F /  10.6 °C 47.3 °F /  8.5 °C 29.6in /  1001.4hPa WNW 10.1mph /  16.3km/h 10mph /  16.1km/h 87% 0.02in /  0.5mm 95 W/m2
17:03 50.7 °F /  10.4 °C 47.3 °F /  8.5 °C 29.6in /  1001.4hPa West 6mph /  9.7km/h 8mph /  12.9km/h 88% 0.02in /  0.5mm 172 W/m2
17:08 50.9 °F /  10.5 °C 47.5 °F /  8.6 °C 29.6in /  1001.4hPa WNW 4mph /  6.4km/h 9mph /  14.5km/h 88% 0.01in /  0.2mm 239 W/m2
17:13 51.1 °F /  10.6 °C 47.7 °F /  8.7 °C 29.6in /  1001.0hPa West 2.9mph /  4.7km/h 4mph /  6.4km/h 88% 0.01in /  0.2mm 236 W/m2
17:18 51.3 °F /  10.7 °C 47.8 °F /  8.8 °C 29.6in /  1001.0hPa West 4mph /  6.4km/h 7mph /  11.3km/h 88% 0.01in /  0.2mm 237 W/m2
17:23 51.8 °F /  11 °C 48.7 °F /  9.3 °C 29.6in /  1001.0hPa NNW 4.9mph /  7.9km/h 8mph /  12.9km/h 89% 0.01in /  0.2mm 629 W/m2
17:28 52.5 °F /  11.4 °C 48.7 °F /  9.3 °C 29.6in /  1001.4hPa NNW 4mph /  6.4km/h 8mph /  12.9km/h 87% 0.01in /  0.2mm 504 W/m2
17:33 53.2 °F /  11.8 °C 49.1 °F /  9.5 °C 29.6in /  1001.4hPa NW 0.9mph /  1.4km/h 4mph /  6.4km/h 86% 0.01in /  0.2mm 464 W/m2
17:38 53.4 °F /  11.9 °C 49.1 °F /  9.5 °C 29.6in /  1001.4hPa NNW 4.9mph /  7.9km/h 9mph /  14.5km/h 85% 0.01in /  0.2mm 156 W/m2
17:43 53.2 °F /  11.8 °C 48.9 °F /  9.4 °C 29.6in /  1001.4hPa NW 2mph /  3.2km/h 4mph /  6.4km/h 85% 0.01in /  0.2mm 100 W/m2
17:48 53.1 °F /  11.7 °C 48.9 °F /  9.4 °C 29.6in /  1001.4hPa NE 2.9mph /  4.7km/h 9mph /  14.5km/h 86% 0.01in /  0.2mm 84 W/m2
17:53 52.9 °F /  11.6 °C 48.6 °F /  9.2 °C 29.6in /  1001.4hPa SW 2.9mph /  4.7km/h 4mph /  6.4km/h 85% 0in /  0.0mm 107 W/m2
17:58 52.5 °F /  11.4 °C 48.2 °F /  9 °C 29.6in /  1001.4hPa NNW 2.9mph /  4.7km/h 6mph /  9.7km/h 85% 0in /  0.0mm 183 W/m2
18:03 52.7 °F /  11.5 °C 48.4 °F /  9.1 °C 29.6in /  1001.4hPa NW 4.9mph /  7.9km/h 10mph /  16.1km/h 85% 0in /  0.0mm 492 W/m2
18:08 53.2 °F /  11.8 °C 49.1 °F /  9.5 °C 29.6in /  1001.4hPa NW 0.9mph /  1.4km/h 2mph /  3.2km/h 86% 0in /  0.0mm 359 W/m2
18:13 53.8 °F /  12.1 °C 49.1 °F /  9.5 °C 29.6in /  1001.4hPa NW 8.1mph /  13km/h 8mph /  12.9km/h 84% 0in /  0.0mm 336 W/m2
18:18 54.1 °F /  12.3 °C 49.1 °F /  9.5 °C 29.6in /  1001.4hPa NNW 2.9mph /  4.7km/h 8mph /  12.9km/h 83% 0in /  0.0mm 327 W/m2
18:24 54.3 °F /  12.4 °C 48.9 °F /  9.4 °C 29.6in /  1001.4hPa ENE 2mph /  3.2km/h 5mph /  8km/h 82% 0in /  0.0mm 330 W/m2
18:29 54.3 °F /  12.4 °C 48.6 °F /  9.2 °C 29.6in /  1001.4hPa NNW 0.9mph /  1.4km/h 8mph /  12.9km/h 81% 0in /  0.0mm 323 W/m2
18:34 54 °F /  12.2 °C 48.2 °F /  9 °C 29.6in /  1001.4hPa WNW 2.9mph /  4.7km/h 6mph /  9.7km/h 81% 0in /  0.0mm 76 W/m2
18:39 53.6 °F /  12 °C 47.8 °F /  8.8 °C 29.6in /  1001.7hPa North 2mph /  3.2km/h 12mph /  19.3km/h 81% 0in /  0.0mm 86 W/m2
18:44 53.2 °F /  11.8 °C 48.2 °F /  9 °C 29.6in /  1001.7hPa NNW 0.9mph /  1.4km/h 4mph /  6.4km/h 83% 0in /  0.0mm 130 W/m2
18:49 53.2 °F /  11.8 °C 48.2 °F /  9 °C 29.6in /  1001.7hPa Calm   3mph /  4.8km/h 83% 0in /  0.0mm 69 W/m2
18:54 53.2 °F /  11.8 °C 48.2 °F /  9 °C 29.6in /  1001.4hPa NW 2mph /  3.2km/h 3mph /  4.8km/h 83% 0in /  0.0mm 93 W/m2
18:59 53.4 °F /  11.9 °C 48.7 °F /  9.3 °C 29.6in /  1001.7hPa Calm   1mph /  1.6km/h 84% 0in /  0.0mm 88 W/m2
19:04 53.2 °F /  11.8 °C 48.2 °F /  9 °C 29.6in /  1001.4hPa North 0.9mph /  1.4km/h 5mph /  8km/h 83% 0in /  0.0mm 67 W/m2
19:09 53.2 °F /  11.8 °C 48.2 °F /  9 °C 29.6in /  1001.4hPa ESE 0.9mph /  1.4km/h 2mph /  3.2km/h 83% 0in /  0.0mm 62 W/m2
19:14 53.2 °F /  11.8 °C 48.2 °F /  9 °C 29.6in /  1001.4hPa Calm   3mph /  4.8km/h 83% 0in /  0.0mm 84 W/m2
19:19 53.2 °F /  11.8 °C 48.2 °F /  9 °C 29.6in /  1001.4hPa North 0.9mph /  1.4km/h 4mph /  6.4km/h 83% 0in /  0.0mm 49 W/m2
19:24 53.4 °F /  11.9 °C 48.4 °F /  9.1 °C 29.6in /  1001.4hPa NNE 2mph /  3.2km/h 3mph /  4.8km/h 83% 0in /  0.0mm 49 W/m2
19:29 53.4 °F /  11.9 °C 48.4 °F /  9.1 °C 29.6in /  1001.4hPa Calm   2mph /  3.2km/h 83% 0in /  0.0mm 33 W/m2
19:34 53.4 °F /  11.9 °C 48.7 °F /  9.3 °C 29.6in /  1001.4hPa Calm   2mph /  3.2km/h 84% 0in /  0.0mm 51 W/m2
19:39 53.4 °F /  11.9 °C 48.7 °F /  9.3 °C 29.6in /  1001.4hPa SE 2mph /  3.2km/h 4mph /  6.4km/h 84% 0in /  0.0mm 25 W/m2
19:44 53.2 °F /  11.8 °C 48.6 °F /  9.2 °C 29.6in /  1001.4hPa WSW 0.9mph /  1.4km/h 4mph /  6.4km/h 84% 0in /  0.0mm 44 W/m2
19:49 53.2 °F /  11.8 °C 48.2 °F /  9 °C 29.6in /  1001.7hPa WNW 2.9mph /  4.7km/h 5mph /  8km/h 83% 0in /  0.0mm 51 W/m2
19:54 53.2 °F /  11.8 °C 48.2 °F /  9 °C 29.6in /  1001.4hPa Calm   2mph /  3.2km/h 83% 0in /  0.0mm 26 W/m2
19:59 53.2 °F /  11.8 °C 48.2 °F /  9 °C 29.6in /  1001.7hPa WSW 2mph /  3.2km/h 4mph /  6.4km/h 83% 0in /  0.0mm 72 W/m2
20:04 53.2 °F /  11.8 °C 47.8 °F /  8.8 °C 29.6in /  1001.7hPa ENE 4mph /  6.4km/h 4mph /  6.4km/h 82% 0in /  0.0mm 23 W/m2
20:10 53.1 °F /  11.7 °C 47.7 °F /  8.7 °C 29.6in /  1001.7hPa WNW 0.9mph /  1.4km/h 3mph /  4.8km/h 82% 0in /  0.0mm 14 W/m2
20:15 53.1 °F /  11.7 °C 47.7 °F /  8.7 °C 29.6in /  1001.7hPa NNW 0.9mph /  1.4km/h 4mph /  6.4km/h 82% 0in /  0.0mm 12 W/m2
20:20 52.9 °F /  11.6 °C 47.5 °F /  8.6 °C 29.6in /  1001.7hPa WNW 0.9mph /  1.4km/h 3mph /  4.8km/h 82% 0in /  0.0mm 12 W/m2
20:25 52.9 °F /  11.6 °C 47.5 °F /  8.6 °C 29.6in /  1001.7hPa NW 0.9mph /  1.4km/h 3mph /  4.8km/h 82% 0in /  0.0mm 7 W/m2
20:30 52.9 °F /  11.6 °C 47.5 °F /  8.6 °C 29.6in /  1001.7hPa NNE 2mph /  3.2km/h 3mph /  4.8km/h 82% 0in /  0.0mm 5 W/m2
20:35 52.9 °F /  11.6 °C 47.5 °F /  8.6 °C 29.6in /  1001.7hPa NNE 0.9mph /  1.4km/h 4mph /  6.4km/h 82% 0in /  0.0mm 5 W/m2
20:40 53.1 °F /  11.7 °C 47.7 °F /  8.7 °C 29.6in /  1001.7hPa ENE 6.9mph /  11.1km/h 7mph /  11.3km/h 82% 0in /  0.0mm 5 W/m2
20:45 52.9 °F /  11.6 °C 47.5 °F /  8.6 °C 29.6in /  1001.7hPa East 2mph /  3.2km/h 3mph /  4.8km/h 82% 0in /  0.0mm 0 W/m2
20:50 52.9 °F /  11.6 °C 47.5 °F /  8.6 °C 29.6in /  1001.7hPa NNW 2mph /  3.2km/h 2mph /  3.2km/h 82% 0in /  0.0mm 0 W/m2
20:55 52.9 °F /  11.6 °C 47.5 °F /  8.6 °C 29.6in /  1001.7hPa NNW 2.9mph /  4.7km/h 4mph /  6.4km/h 82% 0in /  0.0mm 0 W/m2
21:00 52.7 °F /  11.5 °C 47.7 °F /  8.7 °C 29.6in /  1001.7hPa ENE 0.9mph /  1.4km/h 3mph /  4.8km/h 83% 0in /  0.0mm 0 W/m2
21:05 52.7 °F /  11.5 °C 47.7 °F /  8.7 °C 29.6in /  1001.7hPa NE 0.9mph /  1.4km/h 2mph /  3.2km/h 83% 0in /  0.0mm 0 W/m2
21:10 52.7 °F /  11.5 °C 47.7 °F /  8.7 °C 29.6in /  1001.7hPa NE 2mph /  3.2km/h 3mph /  4.8km/h 83% 0in /  0.0mm 0 W/m2
21:15 52.7 °F /  11.5 °C 47.7 °F /  8.7 °C 29.6in /  1002.0hPa NNW 4mph /  6.4km/h 4mph /  6.4km/h 83% 0.01in /  0.2mm 0 W/m2
21:20 52.5 °F /  11.4 °C 47.8 °F /  8.8 °C 29.6in /  1001.7hPa NNW 2mph /  3.2km/h 5mph /  8km/h 84% 0.01in /  0.2mm 0 W/m2
21:25 52.3 °F /  11.3 °C 47.7 °F /  8.7 °C 29.6in /  1002.0hPa NE 2.9mph /  4.7km/h 4mph /  6.4km/h 84% 0.01in /  0.2mm 0 W/m2
21:30 52.2 °F /  11.2 °C 47.5 °F /  8.6 °C 29.6in /  1001.7hPa SSE 0.9mph /  1.4km/h 5mph /  8km/h 84% 0.01in /  0.2mm 0 W/m2
21:35 52.2 °F /  11.2 °C 47.5 °F /  8.6 °C 29.6in /  1002.0hPa North 0.9mph /  1.4km/h 4mph /  6.4km/h 84% 0.01in /  0.2mm 0 W/m2
21:40 52.2 °F /  11.2 °C 47.5 °F /  8.6 °C 29.6in /  1001.7hPa ENE 0.9mph /  1.4km/h 5mph /  8km/h 84% 0.01in /  0.2mm 0 W/m2
21:45 52 °F /  11.1 °C 47.7 °F /  8.7 °C 29.6in /  1002.0hPa WNW 0.9mph /  1.4km/h 4mph /  6.4km/h 85% 0.01in /  0.2mm 0 W/m2
21:50 51.8 °F /  11 °C 47.5 °F /  8.6 °C 29.6in /  1001.7hPa NE 0.9mph /  1.4km/h 1mph /  1.6km/h 85% 0.01in /  0.2mm 0 W/m2
21:55 51.6 °F /  10.9 °C 47.3 °F /  8.5 °C 29.6in /  1002.0hPa ENE 0.9mph /  1.4km/h 4mph /  6.4km/h 85% 0.01in /  0.2mm 0 W/m2
22:00 51.8 °F /  11 °C 47.5 °F /  8.6 °C 29.6in /  1002.0hPa NW 2.9mph /  4.7km/h 4mph /  6.4km/h 85% 0.01in /  0.2mm 0 W/m2
22:05 52 °F /  11.1 °C 47.3 °F /  8.5 °C 29.6in /  1002.0hPa NNE 2mph /  3.2km/h 3mph /  4.8km/h 84% 0.01in /  0.2mm 0 W/m2
22:10 52.2 °F /  11.2 °C 47.1 °F /  8.4 °C 29.6in /  1002.4hPa WNW 2mph /  3.2km/h 4mph /  6.4km/h 83% 0.01in /  0.2mm 0 W/m2
22:15 52.2 °F /  11.2 °C 47.5 °F /  8.6 °C 29.6in /  1002.0hPa West 2mph /  3.2km/h 2mph /  3.2km/h 84% 0in /  0.0mm 0 W/m2
22:20 52.2 °F /  11.2 °C 47.5 °F /  8.6 °C 29.6in /  1002.4hPa ENE 0.9mph /  1.4km/h 5mph /  8km/h 84% 0in /  0.0mm 0 W/m2
22:25 52 °F /  11.1 °C 47.3 °F /  8.5 °C 29.6in /  1002.4hPa WNW 2.9mph /  4.7km/h 6mph /  9.7km/h 84% 0in /  0.0mm 0 W/m2
22:30 52 °F /  11.1 °C 47.3 °F /  8.5 °C 29.6in /  1002.4hPa NW 13mph /  20.9km/h 13mph /  20.9km/h 84% 0in /  0.0mm 0 W/m2
22:35 52 °F /  11.1 °C 47.3 °F /  8.5 °C 29.6in /  1002.4hPa SSW 8.9mph /  14.3km/h 12mph /  19.3km/h 84% 0in /  0.0mm 0 W/m2
22:40 51.6 °F /  10.9 °C 46.9 °F /  8.3 °C 29.6in /  1002.7hPa WNW 2.9mph /  4.7km/h 10mph /  16.1km/h 84% 0in /  0.0mm 0 W/m2
22:45 51.4 °F /  10.8 °C 46.8 °F /  8.2 °C 29.6in /  1002.4hPa NE 4mph /  6.4km/h 7mph /  11.3km/h 84% 0in /  0.0mm 0 W/m2
22:50 51.3 °F /  10.7 °C 46.6 °F /  8.1 °C 29.6in /  1002.4hPa NW 2.9mph /  4.7km/h 5mph /  8km/h 84% 0in /  0.0mm 0 W/m2
22:55 51.1 °F /  10.6 °C 46.4 °F /  8 °C 29.6in /  1002.4hPa NNW 6mph /  9.7km/h 9mph /  14.5km/h 84% 0in /  0.0mm 0 W/m2
23:00 50.7 °F /  10.4 °C 46 °F /  7.8 °C 29.6in /  1002.4hPa NNW 2.9mph /  4.7km/h 5mph /  8km/h 84% 0in /  0.0mm 0 W/m2
23:05 50.7 °F /  10.4 °C 46 °F /  7.8 °C 29.6in /  1002.7hPa North 2mph /  3.2km/h 7mph /  11.3km/h 84% 0in /  0.0mm 0 W/m2
23:10 50.5 °F /  10.3 °C 45.5 °F /  7.5 °C 29.6in /  1002.4hPa WSW 2.9mph /  4.7km/h 11mph /  17.7km/h 83% 0in /  0.0mm 0 W/m2
23:15 50.4 °F /  10.2 °C 45.3 °F /  7.4 °C 29.6in /  1002.7hPa WNW 4mph /  6.4km/h 8mph /  12.9km/h 83% 0in /  0.0mm 0 W/m2
23:21 50.4 °F /  10.2 °C 45.3 °F /  7.4 °C 29.6in /  1002.7hPa NW 4mph /  6.4km/h 8mph /  12.9km/h 83% 0in /  0.0mm 0 W/m2
23:26 50.4 °F /  10.2 °C 45.3 °F /  7.4 °C 29.6in /  1002.7hPa NW 4.9mph /  7.9km/h 10mph /  16.1km/h 83% 0in /  0.0mm 0 W/m2
23:31 50.2 °F /  10.1 °C 45.1 °F /  7.3 °C 29.6in /  1002.7hPa NW 8.9mph /  14.3km/h 9mph /  14.5km/h 83% 0in /  0.0mm 0 W/m2
23:36 50 °F /  10 °C 45 °F /  7.2 °C 29.6in /  1002.7hPa WSW 6.9mph /  11.1km/h 8mph /  12.9km/h 83% 0in /  0.0mm 0 W/m2
23:41 49.8 °F /  9.9 °C 45.1 °F /  7.3 °C 29.6in /  1002.7hPa West 2mph /  3.2km/h 2mph /  3.2km/h 84% 0in /  0.0mm 0 W/m2
23:46 49.6 °F /  9.8 °C 45 °F /  7.2 °C 29.6in /  1002.7hPa NW 2.9mph /  4.7km/h 3mph /  4.8km/h 84% 0in /  0.0mm 0 W/m2
23:51 49.5 °F /  9.7 °C 44.8 °F /  7.1 °C 29.6in /  1003.0hPa SSW 2mph /  3.2km/h 3mph /  4.8km/h 84% 0in /  0.0mm 0 W/m2
23:56 49.5 °F /  9.7 °C 45.1 °F /  7.3 °C 29.6in /  1003.0hPa Calm   2mph /  3.2km/h 85% 0in /  0.0mm 0 W/m2
Juneau County Weather
Compliments of Weather Underground - 2 mb